sensor_id;sensor_type;location;lat;lon;timestamp;temperature;humidity
4386;DHT22;2207;53.540;10.042;2023-11-18T00:00:54;5.20;84.00
4386;DHT22;2207;53.540;10.042;2023-11-18T00:03:20;5.30;84.10
4386;DHT22;2207;53.540;10.042;2023-11-18T00:05:47;5.30;84.10
4386;DHT22;2207;53.540;10.042;2023-11-18T00:08:14;5.30;84.00
4386;DHT22;2207;53.540;10.042;2023-11-18T00:10:41;5.30;84.10
4386;DHT22;2207;53.540;10.042;2023-11-18T00:13:08;5.30;84.10
4386;DHT22;2207;53.540;10.042;2023-11-18T00:15:35;5.40;84.10
4386;DHT22;2207;53.540;10.042;2023-11-18T00:18:01;5.40;84.10
4386;DHT22;2207;53.540;10.042;2023-11-18T00:20:28;5.40;84.00
4386;DHT22;2207;53.540;10.042;2023-11-18T00:22:56;5.40;84.00
4386;DHT22;2207;53.540;10.042;2023-11-18T00:25:22;5.40;84.10
4386;DHT22;2207;53.540;10.042;2023-11-18T00:27:50;5.40;84.10
4386;DHT22;2207;53.540;10.042;2023-11-18T00:30:17;5.40;84.10
4386;DHT22;2207;53.540;10.042;2023-11-18T00:32:44;5.40;84.10
4386;DHT22;2207;53.540;10.042;2023-11-18T00:35:10;5.40;84.10
4386;DHT22;2207;53.540;10.042;2023-11-18T00:37:37;5.40;84.00
4386;DHT22;2207;53.540;10.042;2023-11-18T00:40:04;5.40;83.90
4386;DHT22;2207;53.540;10.042;2023-11-18T00:42:32;5.40;84.00
4386;DHT22;2207;53.540;10.042;2023-11-18T00:44:59;5.40;84.10
4386;DHT22;2207;53.540;10.042;2023-11-18T00:47:26;5.40;84.20
4386;DHT22;2207;53.540;10.042;2023-11-18T00:49:53;5.40;84.30
4386;DHT22;2207;53.540;10.042;2023-11-18T00:52:20;5.50;84.30
4386;DHT22;2207;53.540;10.042;2023-11-18T00:54:47;5.50;85.00
4386;DHT22;2207;53.540;10.042;2023-11-18T00:57:20;5.40;84.20
4386;DHT22;2207;53.540;10.042;2023-11-18T00:59:47;5.50;84.30
4386;DHT22;2207;53.540;10.042;2023-11-18T01:02:15;5.50;84.20
4386;DHT22;2207;53.540;10.042;2023-11-18T01:04:43;5.50;84.20
4386;DHT22;2207;53.540;10.042;2023-11-18T01:07:11;5.40;84.10
4386;DHT22;2207;53.540;10.042;2023-11-18T01:09:37;5.40;84.90
4386;DHT22;2207;53.540;10.042;2023-11-18T01:12:05;5.40;84.20
4386;DHT22;2207;53.540;10.042;2023-11-18T01:14:35;5.40;84.40
4386;DHT22;2207;53.540;10.042;2023-11-18T01:17:00;5.50;84.50
4386;DHT22;2207;53.540;10.042;2023-11-18T01:19:28;5.40;84.30
4386;DHT22;2207;53.540;10.042;2023-11-18T01:21:55;5.50;84.30
4386;DHT22;2207;53.540;10.042;2023-11-18T01:24:21;5.50;84.30
4386;DHT22;2207;53.540;10.042;2023-11-18T01:26:48;5.50;84.40
4386;DHT22;2207;53.540;10.042;2023-11-18T01:29:15;5.50;84.30
4386;DHT22;2207;53.540;10.042;2023-11-18T01:31:41;5.50;84.40
4386;DHT22;2207;53.540;10.042;2023-11-18T01:34:08;5.50;84.40
4386;DHT22;2207;53.540;10.042;2023-11-18T01:36:37;5.50;84.40
4386;DHT22;2207;53.540;10.042;2023-11-18T01:39:04;5.50;84.30
4386;DHT22;2207;53.540;10.042;2023-11-18T01:41:32;5.50;84.30
4386;DHT22;2207;53.540;10.042;2023-11-18T01:43:59;5.50;84.40
4386;DHT22;2207;53.540;10.042;2023-11-18T01:46:25;5.40;84.30
4386;DHT22;2207;53.540;10.042;2023-11-18T01:48:55;5.40;84.30
4386;DHT22;2207;53.540;10.042;2023-11-18T01:51:21;5.40;84.40
4386;DHT22;2207;53.540;10.042;2023-11-18T01:53:50;5.40;84.50
4386;DHT22;2207;53.540;10.042;2023-11-18T01:56:16;5.50;84.60
4386;DHT22;2207;53.540;10.042;2023-11-18T01:58:46;5.50;84.70
4386;DHT22;2207;53.540;10.042;2023-11-18T02:01:14;5.50;84.70
4386;DHT22;2207;53.540;10.042;2023-11-18T02:03:43;5.50;84.70
4386;DHT22;2207;53.540;10.042;2023-11-18T02:06:09;5.50;84.70
4386;DHT22;2207;53.540;10.042;2023-11-18T02:08:37;5.50;84.70
4386;DHT22;2207;53.540;10.042;2023-11-18T02:11:09;5.50;84.60
4386;DHT22;2207;53.540;10.042;2023-11-18T02:13:38;5.50;84.50
4386;DHT22;2207;53.540;10.042;2023-11-18T02:16:06;5.60;84.80
4386;DHT22;2207;53.540;10.042;2023-11-18T02:18:33;5.50;84.70
4386;DHT22;2207;53.540;10.042;2023-11-18T02:21:01;5.60;84.90
4386;DHT22;2207;53.540;10.042;2023-11-18T02:23:28;5.60;85.00
4386;DHT22;2207;53.540;10.042;2023-11-18T02:25:56;5.60;84.80
4386;DHT22;2207;53.540;10.042;2023-11-18T02:28:23;5.60;84.90
4386;DHT22;2207;53.540;10.042;2023-11-18T02:30:50;5.60;84.90
4386;DHT22;2207;53.540;10.042;2023-11-18T02:33:18;5.60;84.80
4386;DHT22;2207;53.540;10.042;2023-11-18T02:35:46;5.70;84.90
4386;DHT22;2207;53.540;10.042;2023-11-18T02:38:15;5.60;84.90
4386;DHT22;2207;53.540;10.042;2023-11-18T02:40:44;5.70;84.90
4386;DHT22;2207;53.540;10.042;2023-11-18T02:43:14;5.60;84.90
4386;DHT22;2207;53.540;10.042;2023-11-18T02:45:42;5.70;85.00
4386;DHT22;2207;53.540;10.042;2023-11-18T02:48:09;5.60;84.90
4386;DHT22;2207;53.540;10.042;2023-11-18T02:50:35;5.70;85.00
4386;DHT22;2207;53.540;10.042;2023-11-18T02:53:03;5.70;85.00
4386;DHT22;2207;53.540;10.042;2023-11-18T02:55:30;5.70;84.80
4386;DHT22;2207;53.540;10.042;2023-11-18T02:57:57;5.60;84.70
4386;DHT22;2207;53.540;10.042;2023-11-18T03:00:24;5.60;84.90
4386;DHT22;2207;53.540;10.042;2023-11-18T03:02:51;5.60;85.00
4386;DHT22;2207;53.540;10.042;2023-11-18T03:05:18;5.60;84.90
4386;DHT22;2207;53.540;10.042;2023-11-18T03:07:44;5.60;84.90
4386;DHT22;2207;53.540;10.042;2023-11-18T03:10:14;5.60;84.90
4386;DHT22;2207;53.540;10.042;2023-11-18T03:12:46;5.60;85.00
4386;DHT22;2207;53.540;10.042;2023-11-18T03:15:13;5.60;85.00
4386;DHT22;2207;53.540;10.042;2023-11-18T03:17:44;5.60;85.00
4386;DHT22;2207;53.540;10.042;2023-11-18T03:20:11;5.60;85.00
4386;DHT22;2207;53.540;10.042;2023-11-18T03:22:41;5.60;84.90
4386;DHT22;2207;53.540;10.042;2023-11-18T03:25:09;5.50;84.90
4386;DHT22;2207;53.540;10.042;2023-11-18T03:27:36;5.50;85.00
4386;DHT22;2207;53.540;10.042;2023-11-18T03:30:02;5.50;85.00
4386;DHT22;2207;53.540;10.042;2023-11-18T03:32:29;5.50;84.90
4386;DHT22;2207;53.540;10.042;2023-11-18T03:34:58;5.40;84.90
4386;DHT22;2207;53.540;10.042;2023-11-18T03:37:25;5.40;85.00
4386;DHT22;2207;53.540;10.042;2023-11-18T03:39:51;5.40;85.00
4386;DHT22;2207;53.540;10.042;2023-11-18T03:42:18;5.40;85.10
4386;DHT22;2207;53.540;10.042;2023-11-18T03:44:45;5.40;85.20
4386;DHT22;2207;53.540;10.042;2023-11-18T03:47:12;5.40;85.20
4386;DHT22;2207;53.540;10.042;2023-11-18T03:49:39;5.40;85.20
4386;DHT22;2207;53.540;10.042;2023-11-18T03:52:07;5.40;85.00
4386;DHT22;2207;53.540;10.042;2023-11-18T03:54:33;5.40;85.00
4386;DHT22;2207;53.540;10.042;2023-11-18T03:57:00;5.40;85.00
4386;DHT22;2207;53.540;10.042;2023-11-18T03:59:27;5.30;84.80
4386;DHT22;2207;53.540;10.042;2023-11-18T04:01:53;5.30;85.00
4386;DHT22;2207;53.540;10.042;2023-11-18T04:04:20;5.30;85.00
4386;DHT22;2207;53.540;10.042;2023-11-18T04:06:46;5.30;85.00
4386;DHT22;2207;53.540;10.042;2023-11-18T04:09:14;5.30;85.10
4386;DHT22;2207;53.540;10.042;2023-11-18T04:11:41;5.30;85.10
4386;DHT22;2207;53.540;10.042;2023-11-18T04:14:10;5.20;85.00
4386;DHT22;2207;53.540;10.042;2023-11-18T04:16:37;5.30;85.10
4386;DHT22;2207;53.540;10.042;2023-11-18T04:19:04;5.20;85.00
4386;DHT22;2207;53.540;10.042;2023-11-18T04:21:31;5.20;85.10
4386;DHT22;2207;53.540;10.042;2023-11-18T04:23:58;5.20;85.10
4386;DHT22;2207;53.540;10.042;2023-11-18T04:26:26;5.30;85.20
4386;DHT22;2207;53.540;10.042;2023-11-18T04:28:52;5.30;85.30
4386;DHT22;2207;53.540;10.042;2023-11-18T04:31:19;5.30;86.00
4386;DHT22;2207;53.540;10.042;2023-11-18T04:33:46;5.30;85.20
4386;DHT22;2207;53.540;10.042;2023-11-18T04:36:13;5.30;85.20
4386;DHT22;2207;53.540;10.042;2023-11-18T04:38:41;5.30;85.30
4386;DHT22;2207;53.540;10.042;2023-11-18T04:41:08;5.30;85.20
4386;DHT22;2207;53.540;10.042;2023-11-18T04:43:36;5.30;85.20
4386;DHT22;2207;53.540;10.042;2023-11-18T04:46:05;5.30;85.20
4386;DHT22;2207;53.540;10.042;2023-11-18T04:48:32;5.30;85.20
4386;DHT22;2207;53.540;10.042;2023-11-18T04:51:00;5.30;85.10
4386;DHT22;2207;53.540;10.042;2023-11-18T04:53:26;5.30;85.00
4386;DHT22;2207;53.540;10.042;2023-11-18T04:55:53;5.20;84.80
4386;DHT22;2207;53.540;10.042;2023-11-18T04:58:20;5.20;84.70
4386;DHT22;2207;53.540;10.042;2023-11-18T05:00:48;5.20;84.60
4386;DHT22;2207;53.540;10.042;2023-11-18T05:03:15;5.10;84.50
4386;DHT22;2207;53.540;10.042;2023-11-18T05:05:42;5.10;84.50
4386;DHT22;2207;53.540;10.042;2023-11-18T05:08:17;5.00;84.40
4386;DHT22;2207;53.540;10.042;2023-11-18T05:10:46;5.00;84.60
4386;DHT22;2207;53.540;10.042;2023-11-18T05:13:13;4.90;84.70
4386;DHT22;2207;53.540;10.042;2023-11-18T05:15:42;4.90;84.80
4386;DHT22;2207;53.540;10.042;2023-11-18T05:18:09;4.90;84.90
4386;DHT22;2207;53.540;10.042;2023-11-18T05:20:36;4.90;85.00
4386;DHT22;2207;53.540;10.042;2023-11-18T05:23:03;4.90;85.00
4386;DHT22;2207;53.540;10.042;2023-11-18T05:25:30;4.80;84.80
4386;DHT22;2207;53.540;10.042;2023-11-18T05:27:58;4.80;84.60
4386;DHT22;2207;53.540;10.042;2023-11-18T05:30:25;4.70;84.50
4386;DHT22;2207;53.540;10.042;2023-11-18T05:32:52;4.70;84.60
4386;DHT22;2207;53.540;10.042;2023-11-18T05:35:20;4.60;84.80
4386;DHT22;2207;53.540;10.042;2023-11-18T05:37:53;4.70;85.00
4386;DHT22;2207;53.540;10.042;2023-11-18T05:40:19;4.60;84.70
4386;DHT22;2207;53.540;10.042;2023-11-18T05:42:47;4.60;84.70
4386;DHT22;2207;53.540;10.042;2023-11-18T05:45:17;4.60;84.90
4386;DHT22;2207;53.540;10.042;2023-11-18T05:47:53;4.60;85.10
4386;DHT22;2207;53.540;10.042;2023-11-18T05:50:21;4.60;85.20
4386;DHT22;2207;53.540;10.042;2023-11-18T05:52:50;4.60;85.40
4386;DHT22;2207;53.540;10.042;2023-11-18T05:55:16;4.60;85.50
4386;DHT22;2207;53.540;10.042;2023-11-18T05:57:43;4.60;85.40
4386;DHT22;2207;53.540;10.042;2023-11-18T06:00:11;4.60;85.40
4386;DHT22;2207;53.540;10.042;2023-11-18T06:02:40;4.60;85.30
4386;DHT22;2207;53.540;10.042;2023-11-18T06:05:07;4.60;85.20
4386;DHT22;2207;53.540;10.042;2023-11-18T06:07:35;4.60;85.10
4386;DHT22;2207;53.540;10.042;2023-11-18T06:10:02;4.60;85.10
4386;DHT22;2207;53.540;10.042;2023-11-18T06:12:30;4.60;85.10
4386;DHT22;2207;53.540;10.042;2023-11-18T06:14:57;4.60;85.20
4386;DHT22;2207;53.540;10.042;2023-11-18T06:17:24;4.50;85.20
4386;DHT22;2207;53.540;10.042;2023-11-18T06:19:50;4.50;85.30
4386;DHT22;2207;53.540;10.042;2023-11-18T06:22:17;4.50;85.40
4386;DHT22;2207;53.540;10.042;2023-11-18T06:24:46;4.50;85.40
4386;DHT22;2207;53.540;10.042;2023-11-18T06:27:13;4.50;85.30
4386;DHT22;2207;53.540;10.042;2023-11-18T06:29:41;4.50;85.20
4386;DHT22;2207;53.540;10.042;2023-11-18T06:32:07;4.50;85.20
4386;DHT22;2207;53.540;10.042;2023-11-18T06:34:34;4.40;85.10
4386;DHT22;2207;53.540;10.042;2023-11-18T06:37:01;4.40;85.20
4386;DHT22;2207;53.540;10.042;2023-11-18T06:39:29;4.40;85.00
4386;DHT22;2207;53.540;10.042;2023-11-18T06:41:57;4.30;84.70
4386;DHT22;2207;53.540;10.042;2023-11-18T06:44:23;4.30;85.00
4386;DHT22;2207;53.540;10.042;2023-11-18T06:46:50;4.20;85.00
4386;DHT22;2207;53.540;10.042;2023-11-18T06:49:17;4.10;84.70
4386;DHT22;2207;53.540;10.042;2023-11-18T06:51:44;4.00;84.70
4386;DHT22;2207;53.540;10.042;2023-11-18T06:54:11;3.90;84.60
4386;DHT22;2207;53.540;10.042;2023-11-18T06:56:39;3.90;84.60
4386;DHT22;2207;53.540;10.042;2023-11-18T06:59:09;3.80;84.70
4386;DHT22;2207;53.540;10.042;2023-11-18T07:01:37;3.70;84.80
4386;DHT22;2207;53.540;10.042;2023-11-18T07:04:06;3.80;85.20
4386;DHT22;2207;53.540;10.042;2023-11-18T07:06:34;3.70;85.40
4386;DHT22;2207;53.540;10.042;2023-11-18T07:09:03;3.80;85.80
4386;DHT22;2207;53.540;10.042;2023-11-18T07:11:37;3.80;86.20
4386;DHT22;2207;53.540;10.042;2023-11-18T07:14:04;3.90;86.60
4386;DHT22;2207;53.540;10.042;2023-11-18T07:16:33;4.00;86.90
4386;DHT22;2207;53.540;10.042;2023-11-18T07:19:00;4.10;87.30
4386;DHT22;2207;53.540;10.042;2023-11-18T07:21:28;4.20;87.60
4386;DHT22;2207;53.540;10.042;2023-11-18T07:23:55;4.30;87.70
4386;DHT22;2207;53.540;10.042;2023-11-18T07:26:22;4.40;87.70
4386;DHT22;2207;53.540;10.042;2023-11-18T07:28:49;4.50;87.70
4386;DHT22;2207;53.540;10.042;2023-11-18T07:31:17;4.60;87.50
4386;DHT22;2207;53.540;10.042;2023-11-18T07:33:45;4.60;87.20
4386;DHT22;2207;53.540;10.042;2023-11-18T07:36:14;4.60;86.80
4386;DHT22;2207;53.540;10.042;2023-11-18T07:38:41;4.60;86.50
4386;DHT22;2207;53.540;10.042;2023-11-18T07:41:07;4.60;86.20
4386;DHT22;2207;53.540;10.042;2023-11-18T07:43:34;4.60;86.00
4386;DHT22;2207;53.540;10.042;2023-11-18T07:46:03;4.50;85.60
4386;DHT22;2207;53.540;10.042;2023-11-18T07:48:30;4.50;85.50
4386;DHT22;2207;53.540;10.042;2023-11-18T07:50:58;4.40;85.40
4386;DHT22;2207;53.540;10.042;2023-11-18T07:53:25;4.40;85.60
4386;DHT22;2207;53.540;10.042;2023-11-18T07:55:55;4.30;85.60
4386;DHT22;2207;53.540;10.042;2023-11-18T07:58:21;4.30;85.80
4386;DHT22;2207;53.540;10.042;2023-11-18T08:00:48;4.30;86.10
4386;DHT22;2207;53.540;10.042;2023-11-18T08:03:15;4.30;86.50
4386;DHT22;2207;53.540;10.042;2023-11-18T08:05:42;4.30;86.80
4386;DHT22;2207;53.540;10.042;2023-11-18T08:08:11;4.40;87.30
4386;DHT22;2207;53.540;10.042;2023-11-18T08:10:38;4.50;87.50
4386;DHT22;2207;53.540;10.042;2023-11-18T08:13:05;4.60;87.50
4386;DHT22;2207;53.540;10.042;2023-11-18T08:15:33;4.70;87.70
4386;DHT22;2207;53.540;10.042;2023-11-18T08:17:59;4.70;87.20
4386;DHT22;2207;53.540;10.042;2023-11-18T08:20:26;4.80;86.90
4386;DHT22;2207;53.540;10.042;2023-11-18T08:22:52;4.70;86.80
4386;DHT22;2207;53.540;10.042;2023-11-18T08:25:21;4.80;87.20
4386;DHT22;2207;53.540;10.042;2023-11-18T08:27:48;4.90;87.60
4386;DHT22;2207;53.540;10.042;2023-11-18T08:30:15;5.10;87.80
4386;DHT22;2207;53.540;10.042;2023-11-18T08:32:43;5.10;87.60
4386;DHT22;2207;53.540;10.042;2023-11-18T08:35:10;5.20;87.20
4386;DHT22;2207;53.540;10.042;2023-11-18T08:37:39;5.20;86.50
4386;DHT22;2207;53.540;10.042;2023-11-18T08:40:06;5.20;85.60
4386;DHT22;2207;53.540;10.042;2023-11-18T08:42:41;5.00;84.80
4386;DHT22;2207;53.540;10.042;2023-11-18T08:45:13;4.90;85.00
4386;DHT22;2207;53.540;10.042;2023-11-18T08:47:42;4.90;84.90
4386;DHT22;2207;53.540;10.042;2023-11-18T08:50:09;4.80;84.60
4386;DHT22;2207;53.540;10.042;2023-11-18T08:52:37;4.70;85.20
4386;DHT22;2207;53.540;10.042;2023-11-18T08:55:09;4.60;84.70
4386;DHT22;2207;53.540;10.042;2023-11-18T08:57:45;4.60;85.50
4386;DHT22;2207;53.540;10.042;2023-11-18T09:00:23;4.70;85.90
4386;DHT22;2207;53.540;10.042;2023-11-18T09:03:11;4.80;85.70
4386;DHT22;2207;53.540;10.042;2023-11-18T09:05:43;4.80;85.30
4386;DHT22;2207;53.540;10.042;2023-11-18T09:08:22;4.90;85.30
4386;DHT22;2207;53.540;10.042;2023-11-18T09:10:49;5.00;85.20
4386;DHT22;2207;53.540;10.042;2023-11-18T09:13:21;5.00;85.00
4386;DHT22;2207;53.540;10.042;2023-11-18T09:15:47;5.10;84.70
4386;DHT22;2207;53.540;10.042;2023-11-18T09:18:14;5.10;84.40
4386;DHT22;2207;53.540;10.042;2023-11-18T09:20:43;5.10;83.70
4386;DHT22;2207;53.540;10.042;2023-11-18T09:23:10;5.00;83.50
4386;DHT22;2207;53.540;10.042;2023-11-18T09:25:37;5.00;83.40
4386;DHT22;2207;53.540;10.042;2023-11-18T09:28:05;4.90;83.20
4386;DHT22;2207;53.540;10.042;2023-11-18T09:30:37;4.90;83.20
4386;DHT22;2207;53.540;10.042;2023-11-18T09:33:15;4.80;83.30
4386;DHT22;2207;53.540;10.042;2023-11-18T09:35:51;4.80;83.50
4386;DHT22;2207;53.540;10.042;2023-11-18T09:38:21;4.80;83.80
4386;DHT22;2207;53.540;10.042;2023-11-18T09:40:49;4.80;83.80
4386;DHT22;2207;53.540;10.042;2023-11-18T09:43:16;4.80;83.80
4386;DHT22;2207;53.540;10.042;2023-11-18T09:45:45;4.80;83.90
4386;DHT22;2207;53.540;10.042;2023-11-18T09:48:15;4.90;84.00
4386;DHT22;2207;53.540;10.042;2023-11-18T09:50:45;4.90;83.90
4386;DHT22;2207;53.540;10.042;2023-11-18T09:53:14;4.90;84.10
4386;DHT22;2207;53.540;10.042;2023-11-18T09:55:46;4.90;84.30
4386;DHT22;2207;53.540;10.042;2023-11-18T09:58:20;5.00;84.40
4386;DHT22;2207;53.540;10.042;2023-11-18T10:00:50;5.00;84.30
4386;DHT22;2207;53.540;10.042;2023-11-18T10:03:23;5.10;84.50
4386;DHT22;2207;53.540;10.042;2023-11-18T10:05:50;5.10;84.60
4386;DHT22;2207;53.540;10.042;2023-11-18T10:08:20;5.20;84.70
4386;DHT22;2207;53.540;10.042;2023-11-18T10:10:51;5.20;84.70
4386;DHT22;2207;53.540;10.042;2023-11-18T10:13:30;5.30;85.10
4386;DHT22;2207;53.540;10.042;2023-11-18T10:16:02;5.50;85.30
4386;DHT22;2207;53.540;10.042;2023-11-18T10:18:30;5.60;85.20
4386;DHT22;2207;53.540;10.042;2023-11-18T10:21:00;5.60;84.80
4386;DHT22;2207;53.540;10.042;2023-11-18T10:23:29;5.70;84.60
4386;DHT22;2207;53.540;10.042;2023-11-18T10:25:59;5.70;84.30
4386;DHT22;2207;53.540;10.042;2023-11-18T10:28:27;5.70;84.20
4386;DHT22;2207;53.540;10.042;2023-11-18T10:30:53;5.70;84.20
4386;DHT22;2207;53.540;10.042;2023-11-18T10:33:27;5.70;84.10
4386;DHT22;2207;53.540;10.042;2023-11-18T10:35:56;5.70;84.00
4386;DHT22;2207;53.540;10.042;2023-11-18T10:38:23;5.70;84.70
4386;DHT22;2207;53.540;10.042;2023-11-18T10:40:54;5.70;83.90
4386;DHT22;2207;53.540;10.042;2023-11-18T10:43:21;5.70;83.90
4386;DHT22;2207;53.540;10.042;2023-11-18T10:45:50;5.80;83.90
4386;DHT22;2207;53.540;10.042;2023-11-18T10:48:17;5.80;83.80
4386;DHT22;2207;53.540;10.042;2023-11-18T10:50:47;5.80;83.70
4386;DHT22;2207;53.540;10.042;2023-11-18T10:53:15;5.80;83.50
4386;DHT22;2207;53.540;10.042;2023-11-18T10:55:43;5.90;83.60
4386;DHT22;2207;53.540;10.042;2023-11-18T10:58:09;5.90;83.50
4386;DHT22;2207;53.540;10.042;2023-11-18T11:00:48;6.00;83.30
4386;DHT22;2207;53.540;10.042;2023-11-18T11:03:17;6.00;83.00
4386;DHT22;2207;53.540;10.042;2023-11-18T11:05:43;6.10;83.10
4386;DHT22;2207;53.540;10.042;2023-11-18T11:08:12;6.10;82.80
4386;DHT22;2207;53.540;10.042;2023-11-18T11:10:40;6.10;82.60
4386;DHT22;2207;53.540;10.042;2023-11-18T11:13:08;6.10;82.30
4386;DHT22;2207;53.540;10.042;2023-11-18T11:15:36;6.10;82.30
4386;DHT22;2207;53.540;10.042;2023-11-18T11:18:08;6.10;82.20
4386;DHT22;2207;53.540;10.042;2023-11-18T11:20:41;6.20;82.20
4386;DHT22;2207;53.540;10.042;2023-11-18T11:23:12;6.20;82.00
4386;DHT22;2207;53.540;10.042;2023-11-18T11:25:48;6.20;82.00
4386;DHT22;2207;53.540;10.042;2023-11-18T11:28:20;6.30;82.20
4386;DHT22;2207;53.540;10.042;2023-11-18T11:30:50;6.30;82.10
4386;DHT22;2207;53.540;10.042;2023-11-18T11:33:18;6.30;82.10
4386;DHT22;2207;53.540;10.042;2023-11-18T11:35:48;6.40;81.90
4386;DHT22;2207;53.540;10.042;2023-11-18T11:38:15;6.40;81.90
4386;DHT22;2207;53.540;10.042;2023-11-18T11:40:44;6.40;81.90
4386;DHT22;2207;53.540;10.042;2023-11-18T11:43:12;6.50;81.90
4386;DHT22;2207;53.540;10.042;2023-11-18T11:45:46;6.50;81.60
4386;DHT22;2207;53.540;10.042;2023-11-18T11:48:13;6.50;80.80
4386;DHT22;2207;53.540;10.042;2023-11-18T11:50:44;6.40;80.30
4386;DHT22;2207;53.540;10.042;2023-11-18T11:53:15;6.40;80.40
4386;DHT22;2207;53.540;10.042;2023-11-18T11:55:44;6.40;80.50
4386;DHT22;2207;53.540;10.042;2023-11-18T11:58:26;6.40;80.20
4386;DHT22;2207;53.540;10.042;2023-11-18T12:00:53;6.40;80.00
4386;DHT22;2207;53.540;10.042;2023-11-18T12:03:21;6.40;79.70
4386;DHT22;2207;53.540;10.042;2023-11-18T12:05:48;6.40;79.30
4386;DHT22;2207;53.540;10.042;2023-11-18T12:08:16;6.40;79.10
4386;DHT22;2207;53.540;10.042;2023-11-18T12:10:50;6.40;79.10
4386;DHT22;2207;53.540;10.042;2023-11-18T12:13:17;6.50;79.20
4386;DHT22;2207;53.540;10.042;2023-11-18T12:15:49;6.50;79.20
4386;DHT22;2207;53.540;10.042;2023-11-18T12:18:19;6.60;79.30
4386;DHT22;2207;53.540;10.042;2023-11-18T12:20:47;6.70;79.20
4386;DHT22;2207;53.540;10.042;2023-11-18T12:23:19;6.70;79.10
4386;DHT22;2207;53.540;10.042;2023-11-18T12:25:48;6.70;78.70
4386;DHT22;2207;53.540;10.042;2023-11-18T12:28:19;6.80;78.60
4386;DHT22;2207;53.540;10.042;2023-11-18T12:30:53;6.80;78.30
4386;DHT22;2207;53.540;10.042;2023-11-18T12:33:22;6.90;77.90
4386;DHT22;2207;53.540;10.042;2023-11-18T12:36:07;6.90;77.50
4386;DHT22;2207;53.540;10.042;2023-11-18T12:38:56;7.00;77.40
4386;DHT22;2207;53.540;10.042;2023-11-18T12:41:33;7.00;76.90
4386;DHT22;2207;53.540;10.042;2023-11-18T12:44:10;7.00;76.90
4386;DHT22;2207;53.540;10.042;2023-11-18T12:46:50;7.10;76.80
4386;DHT22;2207;53.540;10.042;2023-11-18T12:49:19;7.10;76.60
4386;DHT22;2207;53.540;10.042;2023-11-18T12:51:49;7.20;76.30
4386;DHT22;2207;53.540;10.042;2023-11-18T12:54:16;7.10;76.60
4386;DHT22;2207;53.540;10.042;2023-11-18T12:56:43;7.10;75.70
4386;DHT22;2207;53.540;10.042;2023-11-18T12:59:13;7.10;75.50
4386;DHT22;2207;53.540;10.042;2023-11-18T13:01:43;7.00;75.30
4386;DHT22;2207;53.540;10.042;2023-11-18T13:04:17;7.00;76.20
4386;DHT22;2207;53.540;10.042;2023-11-18T13:06:46;6.90;75.40
4386;DHT22;2207;53.540;10.042;2023-11-18T13:09:13;6.80;75.10
4386;DHT22;2207;53.540;10.042;2023-11-18T13:11:51;6.70;75.10
4386;DHT22;2207;53.540;10.042;2023-11-18T13:14:18;6.70;75.30
4386;DHT22;2207;53.540;10.042;2023-11-18T13:16:45;6.60;75.40
4386;DHT22;2207;53.540;10.042;2023-11-18T13:19:24;6.60;75.60
4386;DHT22;2207;53.540;10.042;2023-11-18T13:21:51;6.50;75.80
4386;DHT22;2207;53.540;10.042;2023-11-18T13:24:18;6.50;76.00
4386;DHT22;2207;53.540;10.042;2023-11-18T13:26:44;6.50;76.30
4386;DHT22;2207;53.540;10.042;2023-11-18T13:29:12;6.50;76.40
4386;DHT22;2207;53.540;10.042;2023-11-18T13:31:38;6.60;76.50
4386;DHT22;2207;53.540;10.042;2023-11-18T13:34:05;6.60;76.60
4386;DHT22;2207;53.540;10.042;2023-11-18T13:36:33;6.60;76.40
4386;DHT22;2207;53.540;10.042;2023-11-18T13:39:02;6.60;76.40
4386;DHT22;2207;53.540;10.042;2023-11-18T13:41:32;6.60;76.30
4386;DHT22;2207;53.540;10.042;2023-11-18T13:43:59;6.60;76.30
4386;DHT22;2207;53.540;10.042;2023-11-18T13:46:26;6.60;76.20
4386;DHT22;2207;53.540;10.042;2023-11-18T13:48:52;6.60;76.20
4386;DHT22;2207;53.540;10.042;2023-11-18T13:51:19;6.60;76.20
4386;DHT22;2207;53.540;10.042;2023-11-18T13:53:48;6.60;76.20
4386;DHT22;2207;53.540;10.042;2023-11-18T13:56:18;6.60;76.00
4386;DHT22;2207;53.540;10.042;2023-11-18T13:58:45;6.60;76.00
4386;DHT22;2207;53.540;10.042;2023-11-18T14:01:13;6.60;76.00
4386;DHT22;2207;53.540;10.042;2023-11-18T14:03:39;6.60;75.90
4386;DHT22;2207;53.540;10.042;2023-11-18T14:06:08;6.50;75.90
4386;DHT22;2207;53.540;10.042;2023-11-18T14:08:35;6.50;76.00
4386;DHT22;2207;53.540;10.042;2023-11-18T14:11:03;6.50;76.20
4386;DHT22;2207;53.540;10.042;2023-11-18T14:13:30;6.50;76.40
4386;DHT22;2207;53.540;10.042;2023-11-18T14:16:00;6.50;76.40
4386;DHT22;2207;53.540;10.042;2023-11-18T14:18:27;6.40;76.40
4386;DHT22;2207;53.540;10.042;2023-11-18T14:20:53;6.40;76.50
4386;DHT22;2207;53.540;10.042;2023-11-18T14:23:20;6.40;76.60
4386;DHT22;2207;53.540;10.042;2023-11-18T14:25:47;6.40;76.60
4386;DHT22;2207;53.540;10.042;2023-11-18T14:28:15;6.30;76.70
4386;DHT22;2207;53.540;10.042;2023-11-18T14:30:42;6.30;76.80
4386;DHT22;2207;53.540;10.042;2023-11-18T14:33:09;6.30;77.00
4386;DHT22;2207;53.540;10.042;2023-11-18T14:35:36;6.30;77.10
4386;DHT22;2207;53.540;10.042;2023-11-18T14:38:05;6.30;77.00
4386;DHT22;2207;53.540;10.042;2023-11-18T14:40:33;6.30;77.00
4386;DHT22;2207;53.540;10.042;2023-11-18T14:43:00;6.20;76.90
4386;DHT22;2207;53.540;10.042;2023-11-18T14:45:28;6.10;76.90
4386;DHT22;2207;53.540;10.042;2023-11-18T14:47:55;6.10;77.10
4386;DHT22;2207;53.540;10.042;2023-11-18T14:50:21;6.10;77.20
4386;DHT22;2207;53.540;10.042;2023-11-18T14:52:49;6.00;77.30
4386;DHT22;2207;53.540;10.042;2023-11-18T14:55:17;6.00;77.40
4386;DHT22;2207;53.540;10.042;2023-11-18T14:57:43;6.00;77.50
4386;DHT22;2207;53.540;10.042;2023-11-18T15:00:12;6.10;77.60
4386;DHT22;2207;53.540;10.042;2023-11-18T15:02:46;6.00;77.50
4386;DHT22;2207;53.540;10.042;2023-11-18T15:05:14;6.00;77.60
4386;DHT22;2207;53.540;10.042;2023-11-18T15:07:44;6.00;77.70
4386;DHT22;2207;53.540;10.042;2023-11-18T15:10:10;6.00;77.70
4386;DHT22;2207;53.540;10.042;2023-11-18T15:12:39;5.90;77.70
4386;DHT22;2207;53.540;10.042;2023-11-18T15:15:07;5.90;77.80
4386;DHT22;2207;53.540;10.042;2023-11-18T15:17:43;5.90;77.90
4386;DHT22;2207;53.540;10.042;2023-11-18T15:20:12;5.90;78.00
4386;DHT22;2207;53.540;10.042;2023-11-18T15:22:40;5.90;78.10
4386;DHT22;2207;53.540;10.042;2023-11-18T15:25:08;5.90;78.10
4386;DHT22;2207;53.540;10.042;2023-11-18T15:27:37;5.80;78.10
4386;DHT22;2207;53.540;10.042;2023-11-18T15:30:05;5.80;78.10
4386;DHT22;2207;53.540;10.042;2023-11-18T15:32:32;5.80;78.20
4386;DHT22;2207;53.540;10.042;2023-11-18T15:35:01;5.80;78.30
4386;DHT22;2207;53.540;10.042;2023-11-18T15:37:29;5.80;78.30
4386;DHT22;2207;53.540;10.042;2023-11-18T15:39:55;5.80;78.40
4386;DHT22;2207;53.540;10.042;2023-11-18T15:42:22;5.80;78.40
4386;DHT22;2207;53.540;10.042;2023-11-18T15:44:49;5.80;78.40
4386;DHT22;2207;53.540;10.042;2023-11-18T15:47:19;5.80;78.50
4386;DHT22;2207;53.540;10.042;2023-11-18T15:49:46;5.80;78.60
4386;DHT22;2207;53.540;10.042;2023-11-18T15:52:16;5.80;78.70
4386;DHT22;2207;53.540;10.042;2023-11-18T15:54:44;5.80;78.70
4386;DHT22;2207;53.540;10.042;2023-11-18T15:57:12;5.80;78.70
4386;DHT22;2207;53.540;10.042;2023-11-18T15:59:39;5.80;78.70
4386;DHT22;2207;53.540;10.042;2023-11-18T16:02:05;5.80;78.80
4386;DHT22;2207;53.540;10.042;2023-11-18T16:04:32;5.80;78.80
4386;DHT22;2207;53.540;10.042;2023-11-18T16:06:58;5.80;78.70
4386;DHT22;2207;53.540;10.042;2023-11-18T16:09:26;5.80;78.70